Time;durP1;ratioP1;P1;durP2;ratioP2;P2;SDS_P1;SDS_P2;PMS_P1;PMS_P2;Temp;Humidity;BMP_temperature;BMP_pressure;BME280_temperature;BME280_humidity;BME280_pressure;Samples;Min_cycle;Max_cycle;Signal;HPM_P1;HPM_P2
2023/09/08 00:00:14;;;;;;;7.10;5.32;;;;;;;19.36;72.59;101296.41;5026700;28;20037;-81
2023/09/08 00:02:43;;;;;;;7.80;4.78;;;;;;;19.41;72.71;101294.47;4994093;28;20723;-81
2023/09/08 00:05:10;;;;;;;6.47;4.28;;;;;;;19.34;72.95;101294.69;5035951;28;20052;-80
2023/09/08 00:07:37;;;;;;;5.03;4.18;;;;;;;19.30;72.73;101294.84;5022900;28;20057;-80
2023/09/08 00:10:05;;;;;;;7.63;5.15;;;;;;;19.27;73.81;101292.31;5021571;28;20045;-83
2023/09/08 00:12:31;;;;;;;10.52;5.03;;;;;;;19.24;73.77;101292.41;5018908;28;20048;-84
2023/09/08 00:14:58;;;;;;;6.20;5.20;;;;;;;19.20;73.67;101294.28;5017738;28;20069;-81
2023/09/08 00:17:24;;;;;;;5.50;4.93;;;;;;;19.18;73.94;101288.19;5020216;28;20112;-80
2023/09/08 00:19:51;;;;;;;5.88;4.38;;;;;;;19.13;74.19;101282.19;5029661;28;20068;-87
2023/09/08 00:22:18;;;;;;;5.30;4.80;;;;;;;19.09;74.50;101283.22;5036794;28;20603;-82
2023/09/08 00:24:44;;;;;;;5.82;4.50;;;;;;;19.04;75.11;101283.34;5017628;28;20042;-82
2023/09/08 00:27:14;;;;;;;8.02;4.68;;;;;;;19.01;75.41;101280.81;5028938;28;20096;-81
2023/09/08 00:29:43;;;;;;;7.65;4.65;;;;;;;18.99;75.92;101280.88;4993413;28;20427;-82
2023/09/08 00:32:11;;;;;;;6.57;5.25;;;;;;;18.99;76.91;101282.66;5009942;28;20045;-80
2023/09/08 00:34:37;;;;;;;6.75;4.88;;;;;;;18.96;76.31;101277.47;5018654;28;20061;-80
2023/09/08 00:37:07;;;;;;;8.60;5.40;;;;;;;18.93;77.17;101278.44;5026283;28;20139;-85
2023/09/08 00:39:36;;;;;;;6.45;5.30;;;;;;;18.87;77.52;101286.56;5009557;28;20052;-81
2023/09/08 00:42:03;;;;;;;5.88;4.60;;;;;;;18.87;76.77;101278.59;5015282;28;20045;-81
2023/09/08 00:44:30;;;;;;;6.50;4.93;;;;;;;18.82;77.32;101278.72;5028435;28;20442;-81
2023/09/08 00:46:57;;;;;;;6.95;5.63;;;;;;;18.83;77.42;101280.47;5021084;28;20077;-83
2023/09/08 00:49:24;;;;;;;6.47;5.43;;;;;;;18.77;77.92;101277.16;5021558;28;20052;-80
2023/09/08 00:51:52;;;;;;;6.15;4.78;;;;;;;18.74;78.06;101277.28;5018167;28;20586;-81
2023/09/08 00:54:19;;;;;;;7.13;5.00;;;;;;;18.72;77.65;101281.75;5011823;28;20131;-80
2023/09/08 00:56:47;;;;;;;6.43;5.00;;;;;;;18.67;78.27;101268.66;5025021;28;20037;-83
2023/09/08 00:59:14;;;;;;;8.43;5.00;;;;;;;18.64;78.77;101268.75;5022339;28;20116;-84
2023/09/08 01:01:40;;;;;;;10.48;5.57;;;;;;;18.57;78.75;101270.72;5023783;28;20105;-81
2023/09/08 01:04:07;;;;;;;6.45;4.95;;;;;;;18.55;79.74;101266.41;5020832;28;20473;-84
2023/09/08 01:06:34;;;;;;;10.10;5.80;;;;;;;18.51;79.87;101270.94;5006753;28;20060;-84
2023/09/08 01:09:01;;;;;;;7.93;5.15;;;;;;;18.43;80.12;101268.50;5002707;28;20052;-83
2023/09/08 01:11:28;;;;;;;5.63;4.78;;;;;;;18.38;80.09;101267.78;5016448;28;20046;-81
2023/09/08 01:13:55;;;;;;;5.93;5.15;;;;;;;18.38;80.32;101269.59;5021892;28;20132;-85
2023/09/08 01:16:24;;;;;;;5.53;4.65;;;;;;;18.36;80.45;101274.94;5010878;28;20099;-82
2023/09/08 01:18:52;;;;;;;5.85;4.57;;;;;;;18.33;80.57;101275.06;5019005;28;20080;-84
2023/09/08 01:22:28;;;;;;;5.85;4.85;;;;;;;18.37;80.98;101282.00;5018259;28;20048;-83
2023/09/08 01:25:27;;;;;;;5.57;5.07;;;;;;;18.37;81.03;101275.81;5005230;28;20062;-81
2023/09/08 01:28:00;;;;;;;6.80;5.40;;;;;;;18.33;81.18;101280.34;5017118;28;20119;-83
2023/09/08 01:30:32;;;;;;;8.10;4.93;;;;;;;18.28;81.62;101280.50;5018117;28;20045;-80
2023/09/08 01:32:59;;;;;;;6.55;5.95;;;;;;;18.25;81.64;101277.94;5023052;28;20045;-81
2023/09/08 01:35:27;;;;;;;6.55;5.38;;;;;;;18.20;81.42;101274.56;5015636;28;20144;-83
2023/09/08 01:37:56;;;;;;;6.72;5.75;;;;;;;18.17;81.42;101270.22;5005838;28;20645;-81
2023/09/08 01:40:23;;;;;;;6.45;5.35;;;;;;;18.16;82.47;101270.25;5018172;28;20050;-80
2023/09/08 01:42:50;;;;;;;5.93;5.35;;;;;;;18.08;82.70;101272.28;5019308;28;20045;-82
2023/09/08 01:45:17;;;;;;;7.57;5.35;;;;;;;18.05;82.56;101267.09;5009716;28;20038;-81
2023/09/08 01:47:44;;;;;;;7.53;5.57;;;;;;;18.04;83.32;101265.34;5024798;28;20128;-83
2023/09/08 01:50:11;;;;;;;7.00;5.53;;;;;;;17.99;83.02;101266.34;5034933;28;20129;-82
2023/09/08 01:52:37;;;;;;;4.97;4.47;;;;;;;17.95;83.43;101272.66;5023299;28;20066;-81
2023/09/08 01:55:04;;;;;;;9.45;6.28;;;;;;;17.94;83.59;101264.72;5027035;28;20040;-83
2023/09/08 01:57:31;;;;;;;5.25;4.63;;;;;;;17.94;84.03;101260.31;5013793;28;20050;-83
2023/09/08 01:59:57;;;;;;;7.72;5.63;;;;;;;17.88;84.98;101264.91;5029919;28;20041;-81
2023/09/08 02:02:24;;;;;;;6.90;5.78;;;;;;;17.88;84.68;101264.91;5022148;28;20048;-81
2023/09/08 02:04:53;;;;;;;9.82;5.10;;;;;;;17.83;85.48;101265.03;5032304;28;20091;-81
2023/09/08 02:07:21;;;;;;;7.30;5.85;;;;;;;17.79;85.59;101266.03;5029756;28;20057;-83
2023/09/08 02:09:47;;;;;;;8.35;5.70;;;;;;;17.78;85.09;101262.53;5023754;28;20053;-81
2023/09/08 02:12:14;;;;;;;7.45;6.05;;;;;;;17.72;86.09;101264.47;5026939;28;20041;-82
2023/09/08 02:14:40;;;;;;;6.68;5.97;;;;;;;17.66;86.33;101262.88;5033792;28;20078;-85
2023/09/08 02:17:07;;;;;;;6.15;5.55;;;;;;;17.60;86.97;101261.28;5035838;28;20052;-85
2023/09/08 02:19:34;;;;;;;9.57;6.05;;;;;;;17.60;87.42;101261.28;5031625;28;20045;-82
2023/09/08 02:22:02;;;;;;;11.68;6.93;;;;;;;17.60;87.39;101256.00;5025820;28;20099;-83
2023/09/08 02:24:28;;;;;;;8.73;6.22;;;;;;;17.55;87.63;101252.59;5026875;28;20541;-82
2023/09/08 02:26:55;;;;;;;7.15;5.75;;;;;;;17.51;88.07;101253.59;5013554;28;20041;-81
2023/09/08 02:29:22;;;;;;;13.52;6.05;;;;;;;17.50;88.81;101257.16;5020944;28;20050;-81
2023/09/08 02:31:49;;;;;;;9.90;7.22;;;;;;;17.45;89.02;101251.97;5029111;28;20037;-81
2023/09/08 02:34:18;;;;;;;7.05;6.10;;;;;;;17.43;89.13;101255.59;5030576;28;20449;-79
2023/09/08 02:36:47;;;;;;;8.40;5.78;;;;;;;17.40;89.57;101255.69;5021187;28;20053;-80
2023/09/08 02:39:14;;;;;;;7.93;6.10;;;;;;;17.36;89.74;101254.88;5020013;28;20038;-80
2023/09/08 02:41:41;;;;;;;7.78;5.75;;;;;;;17.37;89.92;101254.00;5001656;28;20045;-83
2023/09/08 02:44:08;;;;;;;8.90;6.28;;;;;;;17.32;90.48;101248.81;5014853;28;20060;-83
2023/09/08 02:46:34;;;;;;;11.65;5.65;;;;;;;17.32;90.55;101246.16;5021753;28;20110;-84
2023/09/08 02:49:01;;;;;;;9.70;6.82;;;;;;;17.29;90.61;101250.69;5015672;28;20144;-79
2023/09/08 02:51:27;;;;;;;6.60;5.88;;;;;;;17.28;90.50;101249.81;5024261;28;20304;-80
2023/09/08 02:53:56;;;;;;;7.13;6.47;;;;;;;17.25;91.32;101251.66;5012579;28;20065;-80
2023/09/08 02:56:23;;;;;;;7.70;6.00;;;;;;;17.21;91.26;101250.91;5023524;28;20116;-80
2023/09/08 02:58:50;;;;;;;8.68;7.18;;;;;;;17.20;91.91;101250.00;5027708;28;20547;-85
2023/09/08 03:01:20;;;;;;;7.40;6.38;;;;;;;17.17;91.84;101247.47;5025470;28;20507;-84
2023/09/08 03:03:47;;;;;;;9.18;6.50;;;;;;;17.16;91.71;101245.72;5027056;28;20049;-80
2023/09/08 03:06:15;;;;;;;9.02;6.72;;;;;;;17.18;91.35;101253.59;5024189;28;20045;-81
2023/09/08 03:08:42;;;;;;;7.85;6.80;;;;;;;17.17;91.41;101247.47;5008815;28;20057;-80
2023/09/08 03:11:09;;;;;;;9.30;6.72;;;;;;;17.13;92.30;101247.56;5009428;28;20480;-86
2023/09/08 03:13:36;;;;;;;7.97;7.07;;;;;;;17.10;91.95;101245.88;5027703;28;20045;-83
2023/09/08 03:16:06;;;;;;;9.73;6.85;;;;;;;17.09;92.21;101246.81;5022383;28;20044;-82
2023/09/08 03:18:36;;;;;;;9.85;7.00;;;;;;;17.06;91.99;101251.31;5018175;28;20095;-83
2023/09/08 03:21:09;;;;;;;9.73;6.18;;;;;;;17.06;92.05;101248.66;5015463;28;20497;-82
2023/09/08 03:23:40;;;;;;;;;;;;;;;17.07;93.05;101243.31;5022775;28;20486;-81
2023/09/08 03:26:08;;;;;;;8.40;7.03;;;;;;;17.02;93.14;101242.56;5024104;28;20168;-81
2023/09/08 03:28:37;;;;;;;8.30;7.03;;;;;;;16.97;92.75;101242.72;5016188;28;20135;-81
2023/09/08 03:31:04;;;;;;;10.40;7.20;;;;;;;16.93;93.19;101240.19;5013071;28;20100;-81
2023/09/08 03:33:31;;;;;;;9.90;6.30;;;;;;;16.89;93.29;101241.13;5028048;28;20100;-83
2023/09/08 03:35:57;;;;;;;7.47;6.57;;;;;;;16.87;93.20;101242.03;5023242;28;20544;-81
2023/09/08 03:38:24;;;;;;;12.20;7.28;;;;;;;16.86;93.16;101247.38;5017486;28;20739;-82
2023/09/08 03:40:52;;;;;;;8.60;7.03;;;;;;;16.80;93.56;101248.38;5002624;28;20057;-84
2023/09/08 03:43:19;;;;;;;10.15;7.78;;;;;;;16.76;94.02;101244.09;5022421;28;20037;-81
2023/09/08 03:45:47;;;;;;;11.85;7.10;;;;;;;16.74;94.42;101237.97;5016732;28;20045;-81
2023/09/08 03:48:13;;;;;;;10.00;6.95;;;;;;;16.75;94.45;101242.38;5020266;28;20064;-82
2023/09/08 03:50:40;;;;;;;8.70;6.90;;;;;;;16.73;94.60;101230.09;5017295;28;20076;-85
2023/09/08 03:53:13;;;;;;;9.27;7.05;;;;;;;16.73;94.85;101235.38;5023080;28;20045;-88
2023/09/08 03:55:39;;;;;;;11.43;6.97;;;;;;;16.66;95.35;101240.81;5026543;28;20136;-84
2023/09/08 03:58:08;;;;;;;7.35;6.25;;;;;;;16.66;95.10;101239.94;5026061;28;20048;-84
2023/09/08 04:00:38;;;;;;;10.15;6.85;;;;;;;16.68;95.00;101238.13;5019871;28;20046;-82
2023/09/08 04:03:06;;;;;;;10.25;7.53;;;;;;;16.64;96.01;101241.75;5013349;28;20234;-83
2023/09/08 04:05:36;;;;;;;7.50;6.80;;;;;;;16.62;95.69;101243.56;5007983;28;20049;-82
2023/09/08 04:08:03;;;;;;;10.63;7.40;;;;;;;16.58;96.55;101236.63;5027113;28;20105;-85
2023/09/08 04:10:29;;;;;;;11.73;7.55;;;;;;;16.55;96.63;101240.19;5034198;28;20044;-86
2023/09/08 04:12:59;;;;;;;10.15;8.23;;;;;;;16.53;96.85;101237.59;5027543;28;20061;-85
2023/09/08 04:15:25;;;;;;;8.57;7.68;;;;;;;16.53;96.75;101234.06;5018931;28;20120;-80
2023/09/08 04:17:52;;;;;;;10.07;7.93;;;;;;;16.54;97.50;101233.16;5017046;28;20214;-84
2023/09/08 04:20:19;;;;;;;11.02;7.75;;;;;;;16.49;97.50;101235.94;5016662;28;20378;-80
2023/09/08 04:22:46;;;;;;;8.88;6.90;;;;;;;16.47;97.63;101231.59;5015668;28;20456;-82
2023/09/08 04:25:14;;;;;;;8.75;7.38;;;;;;;16.46;98.64;101240.44;5019882;28;20576;-82
2023/09/08 04:27:44;;;;;;;10.43;8.23;;;;;;;16.42;98.83;101231.69;5016464;28;20556;-83
2023/09/08 04:30:14;;;;;;;12.85;8.30;;;;;;;16.43;98.77;101237.88;5024177;28;20060;-81
2023/09/08 04:32:43;;;;;;;9.52;7.68;;;;;;;16.44;98.72;101231.66;5003196;28;20045;-80
2023/09/08 04:35:11;;;;;;;9.30;6.93;;;;;;;16.43;98.55;101236.09;5017737;28;20178;-81
2023/09/08 04:37:39;;;;;;;11.27;8.15;;;;;;;16.40;99.41;101222.97;5015334;28;20598;-85
2023/09/08 04:40:12;;;;;;;12.93;7.50;;;;;;;16.36;99.42;101221.28;5019660;28;20472;-81
2023/09/08 04:42:39;;;;;;;12.90;8.65;;;;;;;16.36;99.72;101226.56;5020090;28;20101;-83
2023/09/08 04:45:06;;;;;;;10.48;8.07;;;;;;;16.31;99.99;101226.69;5016094;28;20124;-82
2023/09/08 04:47:32;;;;;;;11.57;8.85;;;;;;;16.26;100.00;101222.44;5019022;28;20054;-86
2023/09/08 04:49:59;;;;;;;11.73;7.53;;;;;;;16.25;100.00;101221.53;5020547;28;20045;-80
2023/09/08 04:52:25;;;;;;;8.48;7.45;;;;;;;16.25;100.00;101221.53;5016946;28;20533;-80
2023/09/08 04:54:54;;;;;;;10.70;7.55;;;;;;;16.23;99.93;101218.09;5021827;28;20046;-81
2023/09/08 04:57:21;;;;;;;10.93;7.07;;;;;;;16.23;99.85;101217.19;5001167;28;20046;-81
2023/09/08 04:59:47;;;;;;;10.65;8.02;;;;;;;16.21;99.74;101218.09;5010105;28;20081;-83
2023/09/08 05:02:14;;;;;;;11.90;7.75;;;;;;;16.22;99.67;101218.97;5026284;28;20127;-82
2023/09/08 05:04:41;;;;;;;10.90;7.43;;;;;;;16.22;99.24;101221.63;5015781;28;20564;-83
2023/09/08 05:07:08;;;;;;;9.40;7.53;;;;;;;16.21;99.34;101228.66;5012092;28;20057;-82
2023/09/08 05:09:34;;;;;;;11.70;7.70;;;;;;;16.20;99.01;101219.03;5020102;28;20603;-82
2023/09/08 05:12:01;;;;;;;9.50;7.63;;;;;;;16.20;99.24;101223.41;5019952;28;20493;-81
2023/09/08 05:14:27;;;;;;;9.35;7.88;;;;;;;16.16;99.54;101224.41;5023272;28;20144;-82
2023/09/08 05:16:55;;;;;;;10.35;8.10;;;;;;;16.14;100.00;101226.19;5022059;28;20139;-82
2023/09/08 05:19:23;;;;;;;12.50;7.65;;;;;;;16.17;99.89;101226.13;5014299;28;20045;-81
2023/09/08 05:21:52;;;;;;;11.50;8.00;;;;;;;16.20;99.89;101224.31;5021965;28;20038;-81
2023/09/08 05:24:20;;;;;;;12.82;8.70;;;;;;;16.19;100.00;101229.59;5014471;28;20049;-81
2023/09/08 05:26:47;;;;;;;9.93;7.85;;;;;;;16.19;100.00;101226.94;5021714;28;20049;-85
2023/09/08 05:29:14;;;;;;;12.82;8.27;;;;;;;16.18;100.00;101231.38;5012237;28;20069;-86
2023/09/08 05:31:41;;;;;;;11.05;7.68;;;;;;;16.19;99.92;101225.19;5018905;28;20051;-80
2023/09/08 05:34:07;;;;;;;14.90;9.18;;;;;;;16.24;99.91;101227.72;5016887;28;20033;-80
2023/09/08 05:36:35;;;;;;;12.10;8.18;;;;;;;16.28;100.00;101228.53;5022189;28;21769;-81
2023/09/08 05:39:02;;;;;;;9.93;8.05;;;;;;;16.33;99.74;101229.28;5017688;28;20037;-84
2023/09/08 05:41:29;;;;;;;14.10;8.13;;;;;;;16.41;99.76;101234.38;5009747;28;20132;-85
2023/09/08 05:43:59;;;;;;;10.63;7.35;;;;;;;16.46;99.30;101235.16;5017914;28;20041;-82
2023/09/08 05:46:35;;;;;;;13.38;8.38;;;;;;;16.50;99.09;101231.50;5019743;28;20041;-81
2023/09/08 05:49:04;;;;;;;9.60;7.57;;;;;;;16.54;98.68;101217.31;5016411;28;20133;-81
2023/09/08 05:51:34;;;;;;;14.50;7.78;;;;;;;16.61;98.36;101221.56;5016000;28;20048;-82
2023/09/08 05:54:01;;;;;;;10.20;8.18;;;;;;;16.65;98.09;101217.94;5024055;28;20050;-80
2023/09/08 05:56:34;;;;;;;12.40;8.23;;;;;;;16.73;98.09;101219.53;5020562;28;20124;-83
2023/09/08 05:59:01;;;;;;;11.35;7.15;;;;;;;16.78;97.61;101222.88;5020346;28;20068;-83
2023/09/08 06:01:31;;;;;;;11.77;7.15;;;;;;;16.82;97.05;101230.72;5018717;28;20092;-83
2023/09/08 06:03:58;;;;;;;8.95;7.60;;;;;;;16.84;97.11;101225.38;5013299;28;20482;-82
2023/09/08 06:06:25;;;;;;;11.38;7.85;;;;;;;16.93;96.58;101221.66;5018395;28;20482;-83
2023/09/08 06:08:51;;;;;;;8.75;6.70;;;;;;;17.00;95.81;101225.88;4988716;28;20037;-80
2023/09/08 06:11:18;;;;;;;10.40;7.72;;;;;;;17.03;95.26;101224.00;5026913;28;20033;-81
2023/09/08 06:13:45;;;;;;;8.80;7.05;;;;;;;17.09;94.78;101225.66;5017268;28;20041;-80
2023/09/08 06:16:11;;;;;;;9.00;7.13;;;;;;;17.10;94.86;101215.91;5023804;28;20132;-80
2023/09/08 06:18:39;;;;;;;8.52;6.55;;;;;;;17.18;94.37;101219.22;5019136;28;20030;-79
2023/09/08 06:21:09;;;;;;;9.38;6.78;;;;;;;17.19;94.08;101223.59;5002592;28;20162;-83
2023/09/08 06:23:36;;;;;;;9.57;7.25;;;;;;;17.24;94.20;101224.34;5023720;28;20041;-80
2023/09/08 06:26:03;;;;;;;10.77;7.30;;;;;;;17.34;93.89;101219.69;5025107;28;20465;-84
2023/09/08 06:28:29;;;;;;;8.60;6.85;;;;;;;17.47;93.27;101223.72;5022063;28;20434;-81
2023/09/08 06:30:56;;;;;;;11.70;6.15;;;;;;;17.63;93.03;101220.63;5015164;28;20136;-81
2023/09/08 06:33:23;;;;;;;7.32;6.60;;;;;;;17.85;92.09;101224.34;5007531;28;20536;-82
2023/09/08 06:35:49;;;;;;;8.20;6.80;;;;;;;18.13;90.86;101225.31;5025416;28;20477;-80
2023/09/08 06:38:16;;;;;;;10.15;6.40;;;;;;;19.42;87.19;101222.72;5021483;28;20034;-84
2023/09/08 06:40:43;;;;;;;7.82;6.28;;;;;;;23.31;63.85;101211.66;5025965;28;20056;-81
2023/09/08 06:43:09;;;;;;;8.02;6.43;;;;;;;25.40;52.71;101213.06;5028205;28;20033;-79
2023/09/08 06:45:42;;;;;;;10.75;6.47;;;;;;;26.77;48.66;101221.25;5017543;28;20045;-80
2023/09/08 06:48:09;;;;;;;6.25;5.20;;;;;;;27.34;46.52;101214.56;5019151;28;20099;-81
2023/09/08 06:50:35;;;;;;;5.97;5.40;;;;;;;28.45;43.87;101217.28;5021460;28;20041;-81
2023/09/08 06:53:02;;;;;;;8.27;5.30;;;;;;;29.17;41.55;101218.94;5022339;28;20124;-81
2023/09/08 06:55:28;;;;;;;6.53;5.22;;;;;;;29.27;41.30;101229.03;5007786;28;20049;-83
2023/09/08 06:57:55;;;;;;;6.38;5.55;;;;;;;29.85;40.13;101220.78;5019540;28;20044;-83
2023/09/08 07:00:22;;;;;;;6.35;5.72;;;;;;;29.58;39.78;101226.59;5025707;28;20065;-84
2023/09/08 07:02:52;;;;;;;9.75;5.93;;;;;;;30.40;39.03;101220.75;5023868;28;20033;-81
2023/09/08 07:05:18;;;;;;;5.72;4.85;;;;;;;30.18;38.14;101227.97;5011492;28;20044;-82
2023/09/08 07:07:45;;;;;;;5.57;4.60;;;;;;;30.64;37.76;101225.13;5019121;28;20528;-81
2023/09/08 07:10:13;;;;;;;6.47;4.75;;;;;;;30.59;37.77;101233.59;5019708;28;20062;-85
2023/09/08 07:12:39;;;;;;;6.82;4.93;;;;;;;30.85;37.08;101233.22;5026643;28;20042;-81
2023/09/08 07:15:08;;;;;;;6.43;4.65;;;;;;;30.96;36.62;101224.16;5022125;28;20043;-82
2023/09/08 07:17:35;;;;;;;5.43;4.40;;;;;;;30.85;37.06;101231.34;5024535;28;20046;-82
2023/09/08 07:20:01;;;;;;;5.03;4.60;;;;;;;31.16;35.92;101222.47;5023868;28;20038;-85
2023/09/08 07:22:28;;;;;;;5.43;4.88;;;;;;;31.18;36.06;101224.06;5009851;28;20049;-81
2023/09/08 07:24:55;;;;;;;5.07;4.57;;;;;;;31.77;35.33;101226.13;5024773;28;20033;-81
2023/09/08 07:27:21;;;;;;;5.00;4.55;;;;;;;32.54;34.51;101224.53;5022762;28;20331;-81
2023/09/08 07:29:49;;;;;;;8.40;5.28;;;;;;;32.39;34.27;101229.53;5008593;28;20101;-83
2023/09/08 07:32:17;;;;;;;7.80;4.28;;;;;;;32.70;33.78;101223.06;5003735;28;20046;-82
2023/09/08 07:34:44;;;;;;;6.03;4.90;;;;;;;32.72;34.31;101221.09;5026324;28;20065;-84
2023/09/08 07:37:11;;;;;;;5.45;4.53;;;;;;;32.21;34.73;101223.97;5015541;28;20133;-83
2023/09/08 07:39:38;;;;;;;8.25;5.35;;;;;;;32.50;34.41;101228.50;5016276;28;20076;-81
2023/09/08 07:42:04;;;;;;;19.67;7.80;;;;;;;32.85;33.93;101226.22;5014932;28;20045;-82
2023/09/08 07:44:34;;;;;;;8.10;4.40;;;;;;;32.51;34.29;101223.97;5009883;28;20056;-83
2023/09/08 07:47:03;;;;;;;6.03;4.25;;;;;;;32.87;33.75;101226.91;5033716;28;20061;-82
2023/09/08 07:49:29;;;;;;;5.25;4.75;;;;;;;32.37;34.08;101223.38;5021091;28;20192;-82
2023/09/08 07:51:56;;;;;;;16.20;6.03;;;;;;;32.22;34.13;101230.25;5018783;28;20068;-82
2023/09/08 07:54:22;;;;;;;7.30;4.72;;;;;;;32.72;33.86;101229.22;5016098;28;20049;-81
2023/09/08 07:56:49;;;;;;;10.48;4.43;;;;;;;32.91;33.62;101234.63;5005794;28;20112;-84
2023/09/08 07:59:18;;;;;;;5.63;4.45;;;;;;;32.96;33.07;101237.75;5029240;28;20053;-84
2023/09/08 08:01:44;;;;;;;5.50;4.88;;;;;;;33.42;32.59;101235.19;5004994;28;20042;-85
2023/09/08 08:04:11;;;;;;;5.85;4.20;;;;;;;33.85;31.84;101238.31;5026168;28;20092;-84
2023/09/08 08:06:38;;;;;;;5.97;4.07;;;;;;;34.44;31.15;101232.47;5037823;28;20045;-82
2023/09/08 08:09:07;;;;;;;9.55;5.35;;;;;;;34.67;30.33;101234.66;5006530;28;20045;-83
2023/09/08 08:11:36;;;;;;;6.80;4.55;;;;;;;34.86;30.29;101239.97;5016947;28;20056;-82
2023/09/08 08:14:03;;;;;;;4.95;4.50;;;;;;;34.60;30.59;101235.31;5016387;28;20124;-89
2023/09/08 08:16:29;;;;;;;4.80;3.95;;;;;;;34.36;30.75;101237.81;5025326;28;20049;-88
2023/09/08 08:18:56;;;;;;;7.93;4.30;;;;;;;34.69;30.37;101236.22;5027713;28;20076;-83
2023/09/08 08:21:24;;;;;;;5.28;4.20;;;;;;;35.14;29.90;101242.50;5026046;28;20044;-82
2023/09/08 08:23:51;;;;;;;4.93;4.45;;;;;;;35.32;29.82;101239.72;5005357;28;20042;-83
2023/09/08 08:26:18;;;;;;;5.10;4.60;;;;;;;34.10;31.23;101241.28;5026539;28;20048;-82
2023/09/08 08:28:44;;;;;;;4.97;4.45;;;;;;;35.23;30.25;101238.81;4994309;28;20059;-81
2023/09/08 08:31:14;;;;;;;5.63;4.43;;;;;;;34.82;30.51;101240.41;5004948;28;20038;-84
2023/09/08 08:33:43;;;;;;;4.82;4.43;;;;;;;34.74;30.78;101236.59;5009398;28;20077;-82
2023/09/08 08:36:10;;;;;;;5.07;4.55;;;;;;;35.23;30.54;101235.25;5022794;28;20464;-82
2023/09/08 08:38:37;;;;;;;4.88;4.22;;;;;;;35.01;30.02;101234.78;5014164;28;20091;-86
2023/09/08 08:41:05;;;;;;;5.32;4.63;;;;;;;34.17;31.46;101236.94;5025363;28;20041;-83
2023/09/08 08:43:33;;;;;;;5.22;4.22;;;;;;;34.19;31.42;101229.47;5015357;28;20045;-89
2023/09/08 08:46:01;;;;;;;4.90;4.40;;;;;;;33.66;32.15;101225.66;5022227;28;20135;-84
2023/09/08 08:48:30;;;;;;;6.55;4.50;;;;;;;33.46;32.75;101233.91;5015374;28;20048;-82
2023/09/08 08:50:59;;;;;;;4.75;4.32;;;;;;;33.80;32.49;101222.44;5018764;28;20128;-83
2023/09/08 08:53:26;;;;;;;4.88;4.45;;;;;;;34.11;31.35;101215.81;5022347;28;20044;-83
2023/09/08 08:55:57;;;;;;;4.40;3.97;;;;;;;33.76;32.48;101220.19;5014338;28;20045;-83
2023/09/08 08:58:26;;;;;;;4.70;4.38;;;;;;;33.62;32.38;101213.38;5020598;28;20040;-82
2023/09/08 09:00:56;;;;;;;6.40;3.83;;;;;;;33.82;32.13;101218.72;5021042;28;20173;-83
2023/09/08 09:03:27;;;;;;;6.25;4.15;;;;;;;33.77;32.53;101208.31;5026162;28;20141;-85
2023/09/08 09:05:56;;;;;;;4.28;3.97;;;;;;;33.89;32.54;101209.81;5020728;28;20036;-83
2023/09/08 09:08:27;;;;;;;6.40;4.10;;;;;;;33.96;31.90;101207.34;5014931;28;20045;-84
2023/09/08 09:10:54;;;;;;;6.30;4.33;;;;;;;33.36;32.91;101210.53;5022083;28;20030;-82
2023/09/08 09:13:22;;;;;;;4.25;3.92;;;;;;;33.78;32.63;101208.16;5020391;28;20076;-83
2023/09/08 09:15:51;;;;;;;5.40;4.82;;;;;;;33.71;32.27;101208.91;5020989;28;20057;-82
2023/09/08 09:18:17;;;;;;;5.55;3.88;;;;;;;34.29;31.74;101208.53;5019585;28;20036;-82
2023/09/08 09:20:57;;;;;;;4.32;4.03;;;;;;;34.40;31.34;101203.88;5018796;28;20034;-82
2023/09/08 09:23:35;;;;;;;5.85;3.88;;;;;;;34.61;31.08;101208.97;5013649;28;20041;-82
2023/09/08 09:26:04;;;;;;;8.18;4.30;;;;;;;34.24;31.55;101208.13;5013539;28;20052;-83
2023/09/08 09:28:31;;;;;;;6.60;4.03;;;;;;;34.57;31.30;101202.16;5020560;28;20052;-82
2023/09/08 09:30:59;;;;;;;7.88;3.60;;;;;;;35.14;30.67;101201.69;5014298;28;20119;-82
2023/09/08 09:33:25;;;;;;;7.75;4.97;;;;;;;34.57;31.75;101200.28;5010560;28;20068;-83
2023/09/08 09:35:54;;;;;;;5.45;4.45;;;;;;;35.16;31.39;101196.94;5020346;28;20059;-82
2023/09/08 09:38:22;;;;;;;5.82;4.10;;;;;;;35.74;30.69;101195.31;5009696;28;20128;-83
2023/09/08 09:40:50;;;;;;;8.20;4.38;;;;;;;35.40;30.05;101196.22;5020468;28;20045;-84
2023/09/08 09:43:17;;;;;;;7.05;3.78;;;;;;;34.45;31.24;101196.97;5009852;28;20049;-85
2023/09/08 09:45:45;;;;;;;6.65;4.30;;;;;;;34.75;31.29;101199.41;5022730;28;20092;-84
2023/09/08 09:48:12;;;;;;;8.68;4.47;;;;;;;35.15;31.53;101195.25;5015450;28;20125;-84
2023/09/08 09:50:45;;;;;;;5.90;3.90;;;;;;;35.83;30.21;101187.16;5026278;28;20049;-85
2023/09/08 09:53:16;;;;;;;7.78;4.68;;;;;;;35.69;30.47;101188.66;5015253;28;20080;-86
2023/09/08 09:55:46;;;;;;;5.95;4.00;;;;;;;36.15;30.03;101185.53;5020468;28;20074;-85
2023/09/08 09:58:15;;;;;;;5.05;4.25;;;;;;;35.96;29.56;101186.69;5037891;28;20041;-89
2023/09/08 10:00:47;;;;;;;7.93;4.40;;;;;;;35.99;30.12;101181.75;5017284;28;20081;-85
2023/09/08 10:03:15;;;;;;;4.10;3.75;;;;;;;36.47;29.36;101183.88;5027020;28;20046;-85
2023/09/08 10:05:41;;;;;;;4.18;3.88;;;;;;;37.36;28.60;101176.50;5009377;28;20449;-85
2023/09/08 10:08:08;;;;;;;6.45;4.10;;;;;;;37.76;28.24;101181.91;5021212;28;20124;-82
2023/09/08 10:10:36;;;;;;;4.43;4.10;;;;;;;36.56;28.92;101177.38;5024412;28;20076;-85
2023/09/08 10:13:10;;;;;;;4.03;3.72;;;;;;;36.68;28.57;101180.59;5006029;28;20049;-83
2023/09/08 10:15:41;;;;;;;4.25;3.70;;;;;;;36.85;28.21;101178.72;5012920;28;20490;-84
2023/09/08 10:18:14;;;;;;;4.60;3.92;;;;;;;36.79;28.11;101182.94;5017918;28;20647;-83
2023/09/08 10:20:42;;;;;;;4.50;3.92;;;;;;;36.78;28.08;101181.25;5022113;28;20498;-84
2023/09/08 10:23:18;;;;;;;4.60;3.78;;;;;;;36.62;28.16;101173.09;5025335;28;20428;-84
2023/09/08 10:25:54;;;;;;;4.07;3.67;;;;;;;37.32;26.86;101177.88;5014729;28;20141;-84
2023/09/08 10:28:23;;;;;;;4.30;4.00;;;;;;;37.88;26.33;101175.03;5020793;28;20405;-84
2023/09/08 10:30:53;;;;;;;3.83;3.53;;;;;;;37.29;26.70;101166.44;5011161;28;20461;-85
2023/09/08 10:33:20;;;;;;;4.07;3.72;;;;;;;37.76;26.76;101161.94;5010681;28;20145;-83
2023/09/08 10:35:47;;;;;;;4.88;4.05;;;;;;;38.02;25.82;101158.88;5022740;28;20490;-85
2023/09/08 10:38:33;;;;;;;5.00;4.50;;;;;;;37.00;27.14;101171.50;5010798;28;20049;-86
2023/09/08 10:41:15;;;;;;;4.68;3.58;;;;;;;38.34;25.47;101159.66;5018334;28;20042;-84
2023/09/08 10:44:08;;;;;;;5.38;3.08;;;;;;;37.71;25.97;101168.78;5020136;28;20107;-85
2023/09/08 10:46:35;;;;;;;3.67;3.20;;;;;;;37.73;26.07;101163.13;5009740;28;20057;-86
2023/09/08 10:49:07;;;;;;;10.50;3.55;;;;;;;37.63;26.08;101159.81;5029461;28;20053;-84
2023/09/08 10:51:37;;;;;;;5.40;3.42;;;;;;;37.81;26.16;101152.22;5026056;28;20545;-83
2023/09/08 10:54:06;;;;;;;9.57;4.15;;;;;;;38.76;25.10;101162.84;5021284;28;20053;-84
2023/09/08 10:56:55;;;;;;;3.95;3.58;;;;;;;38.08;25.67;101154.56;5012221;28;20078;-85
2023/09/08 10:59:29;;;;;;;7.45;3.60;;;;;;;38.99;24.60;101158.13;5023837;28;20259;-83
2023/09/08 11:01:56;;;;;;;4.53;3.38;;;;;;;39.05;24.58;101162.00;5016903;28;20038;-85
2023/09/08 11:04:25;;;;;;;3.90;3.60;;;;;;;38.89;24.09;101163.03;5018277;28;20045;-87
2023/09/08 11:06:57;;;;;;;4.18;3.47;;;;;;;38.27;24.48;101153.25;5010656;28;20052;-85
2023/09/08 11:09:24;;;;;;;6.82;4.03;;;;;;;38.05;25.19;101153.88;5024321;28;20052;-86
2023/09/08 11:11:51;;;;;;;4.85;3.85;;;;;;;38.01;24.79;101157.19;5023132;28;20116;-85
2023/09/08 11:14:18;;;;;;;4.32;3.60;;;;;;;39.10;23.90;101158.69;5026068;28;20045;-85
2023/09/08 11:16:45;;;;;;;3.40;3.10;;;;;;;39.15;23.21;101151.63;5019201;28;20161;-84
2023/09/08 11:19:12;;;;;;;6.43;3.70;;;;;;;37.83;24.73;101152.84;5019950;28;20126;-88
2023/09/08 11:21:39;;;;;;;6.18;4.00;;;;;;;39.19;23.67;101141.16;5002728;28;20123;-82
2023/09/08 11:24:07;;;;;;;3.60;3.30;;;;;;;39.76;22.92;101134.03;5027513;28;20065;-85
2023/09/08 11:26:36;;;;;;;4.18;3.85;;;;;;;39.84;22.64;101138.53;5005484;28;20042;-85
2023/09/08 11:29:04;;;;;;;4.25;3.00;;;;;;;39.70;21.72;101141.13;5019194;28;20404;-85